KVOK/VOK METAR and TAF weather

Enter ICAO airport designator
Station Type Date Time Source
KVOK METAR 2020/04/05 13:56 UTC NOAA

KVOK 051356Z AUTO 11005KT 10SM CLR 01/01 A3020 RMK AO2 SLP241 T00140005


Station Type Date Time Source
KVOK Decoded METAR 2020/04/05 13:56 UTC NOAA

Volk / Camp Douglas, WI, United States (KVOK) 43-56N 090-16W
Apr 05, 2020 - 09:56 AM EDT / 2020.04.05 1356 UTC
Wind: from the ESE (110 degrees) at 6 MPH (5 KT):0
Visibility: 10 mile(s):0
Sky conditions: clear
Temperature: 34.5 F (1.4 C)
Windchill: 28 F (-2 C):1
Dew Point: 32.9 F (0.5 C)
Relative Humidity: 93%
Pressure (altimeter): 30.2 in. Hg (1022 hPa)
ob: KVOK 051356Z AUTO 11005KT 10SM CLR 01/01 A3020 RMK AO2 SLP241 T00140005
cycle: 14

Station Type Date Time Source
KVOK TAF 2020/04/03 17:09 UTC NOAA

TAF KVOK 031700Z 0317/0423 VRB06KT 9999 SCT050 BKN070 QNH2997INS
BECMG 0318/0319 20009KT 9999 BKN023 QNH2998INS
BECMG 0322/0323 30012G18KT 9000 -RA OVC007 650205 QNH3002INS
BECMG 0405/0406 33010G15KT 9999 NSW OVC009 650205 QNH3007INS
BECMG 0411/0412 32012KT 9999 BKN009 OVC015 QNH3012INS
BECMG 0414/0415 32012KT 9999 SCT015 QNH3014INS TX12/0318Z TNM04/0412Z LAST NO
AMDS AFT 0321 NEXT 0609

Example: see airport list